createdAt,value
2019-05-22T00:01:40.228Z,28.00
2019-05-22T00:04:27.567Z,33.03
2019-05-22T00:06:59.829Z,33.57
2019-05-22T00:09:39.986Z,29.00
2019-05-22T00:12:12.174Z,29.00
2019-05-22T00:14:41.637Z,29.80
2019-05-22T00:17:13.455Z,33.90
2019-05-22T00:19:44.921Z,30.83
2019-05-22T00:22:28.606Z,29.07
2019-05-22T00:24:58.875Z,29.53
2019-05-22T00:27:28.375Z,27.90
2019-05-22T00:29:59.029Z,32.03
2019-05-22T00:32:29.831Z,50.43
2019-05-22T00:35:00.191Z,50.20
2019-05-22T00:37:30.107Z,50.73
2019-05-22T00:40:00.697Z,56.40
2019-05-22T00:42:32.436Z,54.47
2019-05-22T00:45:04.652Z,61.43
2019-05-22T00:47:34.167Z,57.07
2019-05-22T00:50:06.243Z,68.57
2019-05-22T00:52:43.221Z,72.27
2019-05-22T00:55:14.870Z,88.33
2019-05-22T00:58:02.367Z,86.60
2019-05-22T01:00:35.604Z,82.00
2019-05-22T01:03:07.037Z,94.00
2019-05-22T01:05:39.202Z,81.73
2019-05-22T01:08:08.571Z,86.27
2019-05-22T01:10:39.617Z,87.57
2019-05-22T01:13:09.472Z,93.33
2019-05-22T01:15:40.698Z,101.37
2019-05-22T01:18:12.224Z,92.73
2019-05-22T01:20:45.615Z,90.00
2019-05-22T01:23:19.151Z,104.00
2019-05-22T01:25:49.130Z,83.93
2019-05-22T01:28:19.762Z,78.70
2019-05-22T01:30:54.804Z,90.00
2019-05-22T01:33:30.359Z,86.77
2019-05-22T01:36:02.302Z,87.27
2019-05-22T01:38:33.647Z,93.67
2019-05-22T01:41:18.155Z,98.03
2019-05-22T01:43:50.430Z,82.53
2019-05-22T01:46:21.927Z,97.77
2019-05-22T01:48:56.916Z,86.50
2019-05-22T01:51:27.662Z,84.10
2019-05-22T01:53:57.545Z,79.80
2019-05-22T01:56:27.125Z,79.93
2019-05-22T01:58:58.152Z,94.70
2019-05-22T02:01:30.189Z,77.80
2019-05-22T02:04:02.030Z,67.20
2019-05-22T02:06:32.500Z,85.07
2019-05-22T02:09:08.151Z,67.23
2019-05-22T02:11:40.675Z,76.73
2019-05-22T02:14:15.507Z,66.43
2019-05-22T02:16:56.170Z,59.93
2019-05-22T02:19:20.339Z,62.13
2019-05-22T02:21:50.383Z,57.37
2019-05-22T02:24:19.809Z,69.10
2019-05-22T02:26:50.117Z,80.70
2019-05-22T02:29:21.339Z,59.60
2019-05-22T02:31:55.450Z,61.80
2019-05-22T02:34:25.149Z,81.13
2019-05-22T02:36:56.065Z,68.00
2019-05-22T02:39:27.264Z,70.13
2019-05-22T02:42:05.487Z,80.17
2019-05-22T02:44:37.141Z,80.57
2019-05-22T02:47:18.891Z,72.20
2019-05-22T02:49:40.115Z,74.43
2019-05-22T02:52:10.272Z,72.23
2019-05-22T02:54:39.911Z,81.80
2019-05-22T02:57:15.378Z,76.40
2019-05-22T02:59:45.713Z,64.73
2019-05-22T03:02:17.275Z,64.00
2019-05-22T03:05:10.905Z,64.17
2019-05-22T03:07:43.522Z,70.63
2019-05-22T03:10:16.222Z,61.57
2019-05-22T03:12:48.309Z,57.17
2019-05-22T03:15:25.932Z,62.23
2019-05-22T03:18:05.163Z,57.50
2019-05-22T03:20:35.935Z,50.97
2019-05-22T03:23:37.805Z,59.10
2019-05-22T03:26:10.494Z,45.47
2019-05-22T03:28:41.021Z,48.47
2019-05-22T03:31:12.716Z,43.10
2019-05-22T03:33:43.284Z,46.90
2019-05-22T03:36:15.572Z,47.17
2019-05-22T03:38:46.823Z,38.27
2019-05-22T03:41:19.186Z,47.93
2019-05-22T03:43:50.801Z,43.83
2019-05-22T03:46:37.284Z,41.20
2019-05-22T03:49:27.518Z,41.53
2019-05-22T03:51:40.658Z,44.37
2019-05-22T03:54:11.668Z,44.13
2019-05-22T03:56:42.723Z,40.90
2019-05-22T03:59:13.517Z,44.97
2019-05-22T04:01:45.011Z,40.77
2019-05-22T04:04:20.251Z,39.90
2019-05-22T04:06:52.237Z,41.30
2019-05-22T04:09:25.217Z,40.70
2019-05-22T04:11:55.377Z,41.43
2019-05-22T04:14:34.380Z,44.07
2019-05-22T04:17:05.761Z,39.43
2019-05-22T04:19:48.641Z,36.03
2019-05-22T04:22:07.090Z,36.47
2019-05-22T04:24:36.872Z,39.67
2019-05-22T04:27:08.633Z,42.37
2019-05-22T04:29:38.328Z,42.80
2019-05-22T04:32:12.578Z,37.00
2019-05-22T04:34:42.595Z,32.30
2019-05-22T04:37:13.780Z,31.37
2019-05-22T04:39:45.335Z,36.47
2019-05-22T04:42:17.262Z,33.20
2019-05-22T04:45:12.664Z,34.83
2019-05-22T04:47:47.122Z,35.77
2019-05-22T04:50:17.065Z,31.43
2019-05-22T04:52:47.104Z,32.80
2019-05-22T04:55:17.323Z,35.37
2019-05-22T04:57:47.301Z,31.97
2019-05-22T05:00:18.478Z,33.03
2019-05-22T05:02:48.163Z,33.00
2019-05-22T05:05:18.584Z,29.53
2019-05-22T05:07:50.631Z,24.00
2019-05-22T05:10:20.894Z,27.47
2019-05-22T05:12:50.757Z,21.00
2019-05-22T05:15:20.482Z,20.10
2019-05-22T05:17:49.881Z,20.43
2019-05-22T05:20:22.372Z,18.20
2019-05-22T05:22:51.563Z,15.93
2019-05-22T05:25:22.153Z,17.97
2019-05-22T05:27:51.613Z,18.17
2019-05-22T05:30:23.928Z,16.43
2019-05-22T05:32:53.344Z,20.03
2019-05-22T05:35:23.550Z,18.30
2019-05-22T05:37:53.424Z,19.30
2019-05-22T05:40:34.795Z,26.37
2019-05-22T05:43:07.402Z,24.67
2019-05-22T05:45:39.889Z,26.67
2019-05-22T05:48:16.288Z,31.97
2019-05-22T05:51:10.191Z,28.30
2019-05-22T05:53:59.850Z,28.27
2019-05-22T05:56:31.855Z,26.73
2019-05-22T05:59:03.370Z,25.60
2019-05-22T06:01:40.586Z,24.83
2019-05-22T06:04:12.023Z,26.90
2019-05-22T06:06:51.993Z,24.03
2019-05-22T06:09:22.855Z,26.97
2019-05-22T06:11:55.112Z,30.70
2019-05-22T06:14:32.203Z,31.77
2019-05-22T06:17:26.246Z,30.70
2019-05-22T06:20:04.088Z,33.87
2019-05-22T06:22:34.217Z,33.53
2019-05-22T06:25:06.200Z,27.13
2019-05-22T06:27:44.539Z,28.90
2019-05-22T06:30:23.407Z,29.40
2019-05-22T06:33:13.582Z,29.90
2019-05-22T06:35:46.097Z,29.03
2019-05-22T06:38:49.407Z,27.90
2019-05-22T06:41:22.661Z,27.90
2019-05-22T06:44:27.088Z,25.17
2019-05-22T06:46:58.180Z,23.87
2019-05-22T06:49:37.431Z,23.13
2019-05-22T06:52:09.308Z,21.37
2019-05-22T06:54:39.386Z,21.10
2019-05-22T06:57:12.531Z,24.57
2019-05-22T06:59:43.634Z,25.40
2019-05-22T07:02:15.374Z,26.60
2019-05-22T07:04:46.255Z,26.10
2019-05-22T07:07:17.413Z,25.93
2019-05-22T07:09:47.422Z,25.53
2019-05-22T07:12:19.784Z,28.20
2019-05-22T07:15:07.290Z,30.93
2019-05-22T07:17:39.904Z,32.37
2019-05-22T07:20:11.336Z,35.27
2019-05-22T07:22:40.877Z,32.73
2019-05-22T07:25:10.882Z,30.90
2019-05-22T07:27:41.097Z,33.47
2019-05-22T07:30:11.696Z,29.80
2019-05-22T07:32:41.591Z,31.67
2019-05-22T07:35:12.756Z,31.03
2019-05-22T07:37:46.845Z,27.90
2019-05-22T07:40:18.605Z,32.40
2019-05-22T07:42:49.833Z,36.77
2019-05-22T07:45:21.916Z,38.17
2019-05-22T07:47:52.837Z,34.03
2019-05-22T07:50:23.010Z,37.37
2019-05-22T07:52:53.185Z,33.23
2019-05-22T07:55:24.699Z,32.63
2019-05-22T07:58:14.518Z,26.70
2019-05-22T08:00:53.879Z,26.17
2019-05-22T08:03:25.571Z,28.53
2019-05-22T08:05:57.734Z,27.13
2019-05-22T08:08:31.776Z,26.87
2019-05-22T08:11:01.961Z,22.67
2019-05-22T08:13:33.128Z,20.43
2019-05-22T08:16:03.130Z,21.53
2019-05-22T08:18:34.147Z,25.23
2019-05-22T08:21:04.295Z,19.57
2019-05-22T08:23:34.431Z,21.23
2019-05-22T08:26:04.915Z,18.13
2019-05-22T08:28:34.892Z,19.00
2019-05-22T08:31:07.551Z,18.77
2019-05-22T08:33:39.263Z,18.47
2019-05-22T08:36:10.647Z,21.10
2019-05-22T08:38:43.688Z,20.57
2019-05-22T08:41:16.037Z,20.60
2019-05-22T08:44:14.515Z,21.23
2019-05-22T08:46:18.792Z,24.53
2019-05-22T08:48:49.791Z,23.10
2019-05-22T08:51:19.899Z,22.33
2019-05-22T08:53:49.626Z,21.47
2019-05-22T08:56:19.554Z,17.73
2019-05-22T08:58:50.041Z,19.83
2019-05-22T09:01:19.772Z,17.40
2019-05-22T09:03:49.249Z,16.23
2019-05-22T09:06:18.904Z,17.77
2019-05-22T09:08:48.397Z,20.30
2019-05-22T09:11:18.107Z,18.93
2019-05-22T09:13:47.513Z,20.10
2019-05-22T09:16:17.109Z,21.23
2019-05-22T09:18:46.646Z,24.00
2019-05-22T09:21:16.553Z,23.50
2019-05-22T09:23:47.307Z,21.80
2019-05-22T09:26:18.524Z,28.03
2019-05-22T09:28:48.233Z,29.07
2019-05-22T09:31:19.216Z,23.23
2019-05-22T09:33:49.836Z,27.10
2019-05-22T09:36:19.383Z,29.97
2019-05-22T09:38:52.229Z,31.60
2019-05-22T09:41:20.743Z,28.67
2019-05-22T09:43:50.131Z,30.27
2019-05-22T09:46:19.968Z,30.50
2019-05-22T09:48:49.605Z,31.40
2019-05-22T09:51:20.303Z,32.33
2019-05-22T09:53:50.111Z,29.80
2019-05-22T09:56:20.406Z,31.63
2019-05-22T09:58:51.330Z,35.87
2019-05-22T10:01:20.767Z,42.90
2019-05-22T10:03:50.540Z,47.87
2019-05-22T10:06:21.736Z,49.67
2019-05-22T10:08:51.429Z,52.77
2019-05-22T10:11:21.515Z,49.80
2019-05-22T10:13:51.946Z,47.37
2019-05-22T10:16:21.465Z,49.03
2019-05-22T10:18:53.347Z,48.40
2019-05-22T10:21:23.353Z,43.10
2019-05-22T10:23:53.256Z,42.73
2019-05-22T10:26:23.720Z,41.07
2019-05-22T10:28:54.310Z,41.20
2019-05-22T10:31:24.761Z,41.37
2019-05-22T10:33:56.108Z,43.87
2019-05-22T10:36:25.767Z,45.80
2019-05-22T10:38:55.988Z,41.90
2019-05-22T10:41:27.620Z,43.17
2019-05-22T10:43:57.739Z,42.33
2019-05-22T10:46:27.495Z,39.63
2019-05-22T10:48:57.449Z,40.77
2019-05-22T10:51:27.066Z,40.57
2019-05-22T10:53:56.924Z,38.47
2019-05-22T10:56:26.525Z,40.13
2019-05-22T10:58:55.996Z,37.73
2019-05-22T11:01:26.020Z,37.20
2019-05-22T11:03:56.341Z,40.43
2019-05-22T11:06:26.387Z,40.53
2019-05-22T11:08:55.916Z,42.00
2019-05-22T11:11:25.989Z,43.33
2019-05-22T11:14:01.488Z,43.00
2019-05-22T11:16:28.028Z,40.97
2019-05-22T11:18:57.865Z,40.47
2019-05-22T11:21:28.207Z,40.60
2019-05-22T11:23:57.768Z,38.27
2019-05-22T11:26:28.019Z,36.57
2019-05-22T11:28:58.439Z,40.07
2019-05-22T11:31:28.156Z,36.33
2019-05-22T11:33:57.791Z,38.90
2019-05-22T11:36:27.865Z,37.53
2019-05-22T11:38:57.356Z,36.70
2019-05-22T11:41:27.330Z,34.27
2019-05-22T11:43:56.857Z,36.53
2019-05-22T11:46:26.608Z,34.77
2019-05-22T11:48:56.088Z,34.67
2019-05-22T11:51:25.638Z,39.20
2019-05-22T11:54:08.711Z,36.33
2019-05-22T11:56:27.910Z,38.57
2019-05-22T11:58:57.454Z,34.90
2019-05-22T12:01:27.324Z,33.43
2019-05-22T12:03:58.472Z,32.47
2019-05-22T12:06:29.634Z,31.87
2019-05-22T12:08:59.553Z,29.00
2019-05-22T12:11:29.145Z,32.33
2019-05-22T12:13:59.176Z,30.63
2019-05-22T12:16:29.715Z,35.40
2019-05-22T12:18:59.573Z,34.27
2019-05-22T12:21:29.546Z,31.40
2019-05-22T12:23:59.025Z,32.67
2019-05-22T12:26:29.924Z,30.00
2019-05-22T12:28:59.446Z,26.43
2019-05-22T12:31:29.058Z,28.80
2019-05-22T12:33:59.047Z,24.47
2019-05-22T12:36:29.433Z,28.30
2019-05-22T12:39:00.506Z,26.53
2019-05-22T12:41:30.663Z,29.40
2019-05-22T12:44:00.757Z,26.30
2019-05-22T12:46:31.064Z,26.93
2019-05-22T12:49:01.583Z,27.90
2019-05-22T12:51:32.942Z,24.93
2019-05-22T12:54:02.999Z,27.70
2019-05-22T12:56:33.634Z,20.23
2019-05-22T12:59:04.212Z,20.70
2019-05-22T13:01:35.092Z,19.40
2019-05-22T13:04:06.889Z,21.07
2019-05-22T13:06:36.921Z,20.23
2019-05-22T13:09:10.786Z,20.80
2019-05-22T13:11:41.724Z,25.80
2019-05-22T13:14:11.534Z,23.17
2019-05-22T13:16:47.376Z,18.87
2019-05-22T13:19:14.528Z,16.97
2019-05-22T13:21:46.226Z,20.00
2019-05-22T13:24:20.597Z,16.03
2019-05-22T13:26:52.432Z,17.67
2019-05-22T13:29:22.908Z,21.57
2019-05-22T13:31:54.559Z,17.83
2019-05-22T13:34:27.000Z,16.00
2019-05-22T13:36:57.818Z,16.70
2019-05-22T13:39:27.429Z,18.37
2019-05-22T13:41:56.970Z,19.40
2019-05-22T13:44:27.175Z,17.83
2019-05-22T13:46:57.257Z,17.67
2019-05-22T13:49:29.004Z,18.43
2019-05-22T13:51:58.535Z,21.27
2019-05-22T13:54:28.513Z,20.93
2019-05-22T13:57:00.022Z,24.07
2019-05-22T13:59:31.182Z,19.80
2019-05-22T14:02:01.445Z,21.77
2019-05-22T14:04:31.094Z,21.67
2019-05-22T14:07:01.061Z,21.83
2019-05-22T14:09:31.546Z,20.73
2019-05-22T14:12:01.462Z,21.77
2019-05-22T14:14:31.435Z,19.23
2019-05-22T14:17:01.331Z,19.70
2019-05-22T14:19:31.617Z,21.57
2019-05-22T14:22:01.411Z,19.43
2019-05-22T14:24:31.184Z,21.73
2019-05-22T14:27:01.646Z,20.80
2019-05-22T14:29:31.908Z,21.53
2019-05-22T14:32:02.847Z,22.13
2019-05-22T14:34:32.233Z,18.13
2019-05-22T14:37:01.749Z,19.07
2019-05-22T14:39:32.665Z,22.03
2019-05-22T14:42:02.375Z,23.00
2019-05-22T14:44:34.077Z,20.33
2019-05-22T14:47:13.127Z,21.33
2019-05-22T14:49:34.402Z,20.77
2019-05-22T14:52:04.965Z,20.23
2019-05-22T14:54:34.822Z,20.13
2019-05-22T14:57:04.456Z,21.17
2019-05-22T14:59:34.294Z,20.93
2019-05-22T15:02:05.635Z,19.90
2019-05-22T15:04:35.195Z,18.20
2019-05-22T15:07:06.139Z,19.27
2019-05-22T15:09:35.793Z,21.03
2019-05-22T15:12:05.814Z,18.47
2019-05-22T15:14:35.287Z,17.07
2019-05-22T15:17:05.266Z,19.87
2019-05-22T15:19:35.468Z,18.43
2019-05-22T15:22:07.318Z,17.20
2019-05-22T15:24:36.825Z,16.70
2019-05-22T15:27:07.955Z,17.47
2019-05-22T15:29:37.474Z,17.83
2019-05-22T15:32:08.640Z,16.77
2019-05-22T15:34:39.713Z,17.80
2019-05-22T15:37:11.242Z,18.03
2019-05-22T15:39:41.351Z,18.67
2019-05-22T15:42:15.661Z,17.97
2019-05-22T15:44:46.271Z,17.17
2019-05-22T15:47:16.018Z,16.03
2019-05-22T15:49:46.138Z,16.87
2019-05-22T15:52:35.552Z,17.00
2019-05-22T15:55:06.515Z,21.03
2019-05-22T15:57:39.260Z,16.40
2019-05-22T16:00:12.611Z,19.53
2019-05-22T16:02:44.639Z,15.93
2019-05-22T16:05:18.429Z,18.30
2019-05-22T16:07:51.912Z,15.90
2019-05-22T16:10:23.770Z,15.57
2019-05-22T16:12:55.705Z,15.70
2019-05-22T16:15:28.818Z,13.83
2019-05-22T16:18:11.785Z,16.00
2019-05-22T16:20:38.577Z,14.80
2019-05-22T16:23:09.510Z,14.47
2019-05-22T16:25:40.078Z,15.33
2019-05-22T16:28:10.578Z,14.77
2019-05-22T16:30:41.640Z,15.67
2019-05-22T16:33:12.933Z,16.67
2019-05-22T16:35:43.250Z,17.27
2019-05-22T16:38:13.664Z,14.17
2019-05-22T16:40:44.745Z,16.87
2019-05-22T16:43:15.435Z,14.13
2019-05-22T16:45:48.207Z,14.13
2019-05-22T16:48:29.033Z,13.40
2019-05-22T16:51:00.050Z,15.90
2019-05-22T16:53:31.889Z,16.13
2019-05-22T16:56:01.538Z,13.97
2019-05-22T16:58:34.224Z,12.53
2019-05-22T17:01:05.228Z,11.90
2019-05-22T17:03:35.679Z,12.33
2019-05-22T17:06:05.632Z,11.77
2019-05-22T17:08:36.673Z,13.50
2019-05-22T17:11:07.892Z,15.80
2019-05-22T17:13:39.054Z,15.20
2019-05-22T17:16:09.383Z,12.00
2019-05-22T17:18:48.822Z,13.13
2019-05-22T17:21:23.199Z,12.03
2019-05-22T17:23:53.383Z,13.27
2019-05-22T17:26:24.210Z,12.10
2019-05-22T17:28:54.488Z,12.77
2019-05-22T17:31:28.070Z,13.87
2019-05-22T17:33:59.694Z,14.33
2019-05-22T17:36:31.754Z,14.60
2019-05-22T17:39:05.302Z,14.53
2019-05-22T17:41:38.280Z,14.63
2019-05-22T17:44:10.829Z,13.63
2019-05-22T17:46:44.582Z,13.90
2019-05-22T17:49:14.766Z,12.43
2019-05-22T17:51:44.557Z,13.63
2019-05-22T17:54:14.268Z,11.80
2019-05-22T17:56:44.175Z,12.07
2019-05-22T17:59:14.101Z,10.00
2019-05-22T18:01:43.937Z,8.83
2019-05-22T18:04:13.420Z,12.27
2019-05-22T18:06:42.872Z,13.17
2019-05-22T18:09:12.705Z,11.73
2019-05-22T18:11:42.178Z,10.47
2019-05-22T18:14:13.001Z,10.93
2019-05-22T18:16:42.910Z,15.50
2019-05-22T18:19:13.177Z,12.50
2019-05-22T18:21:43.295Z,11.77
2019-05-22T18:24:13.623Z,9.87
2019-05-22T18:26:43.264Z,11.50
2019-05-22T18:29:12.870Z,12.07
2019-05-22T18:31:42.411Z,9.13
2019-05-22T18:34:12.001Z,12.70
2019-05-22T18:36:41.534Z,10.07
2019-05-22T18:39:12.682Z,11.83
2019-05-22T18:41:42.221Z,12.07
2019-05-22T18:44:12.422Z,10.23
2019-05-22T18:46:42.331Z,8.30
2019-05-22T18:49:11.968Z,11.60
2019-05-22T18:51:41.913Z,11.37
2019-05-22T18:54:11.551Z,11.40
2019-05-22T18:56:40.969Z,10.27
2019-05-22T18:59:10.656Z,9.90
2019-05-22T19:01:40.470Z,9.70
2019-05-22T19:04:10.021Z,12.27
2019-05-22T19:06:39.758Z,10.53
2019-05-22T19:09:10.538Z,10.80
2019-05-22T19:11:40.711Z,10.23
2019-05-22T19:14:10.607Z,8.43
2019-05-22T19:16:40.376Z,9.27
2019-05-22T19:19:10.013Z,10.40
2019-05-22T19:21:39.512Z,10.63
2019-05-22T19:24:09.083Z,11.70
2019-05-22T19:26:38.511Z,12.90
2019-05-22T19:29:08.356Z,10.13
2019-05-22T19:31:37.908Z,11.23
2019-05-22T19:34:07.837Z,10.83
2019-05-22T19:36:37.486Z,12.77
2019-05-22T19:39:09.765Z,12.53
2019-05-22T19:41:39.770Z,9.27
2019-05-22T19:44:10.407Z,11.93
2019-05-22T19:46:39.990Z,12.33
2019-05-22T19:49:10.342Z,13.23
2019-05-22T19:51:40.667Z,11.87
2019-05-22T19:54:10.607Z,12.43
2019-05-22T19:56:40.705Z,11.27
2019-05-22T19:59:11.584Z,14.33
2019-05-22T20:01:41.687Z,10.97
2019-05-22T20:04:11.988Z,12.33
2019-05-22T20:06:41.914Z,11.37
2019-05-22T20:09:13.637Z,11.93
2019-05-22T20:11:43.567Z,10.80
2019-05-22T20:14:13.632Z,12.67
2019-05-22T20:16:43.287Z,10.90
2019-05-22T20:19:13.295Z,10.57
2019-05-22T20:21:43.086Z,15.17
2019-05-22T20:24:13.320Z,14.00
2019-05-22T20:26:42.795Z,12.07
2019-05-22T20:29:14.492Z,15.17
2019-05-22T20:31:44.252Z,13.67
2019-05-22T20:34:15.246Z,13.43
2019-05-22T20:36:45.408Z,10.93
2019-05-22T20:39:16.245Z,10.80
2019-05-22T20:41:45.910Z,13.70
2019-05-22T20:44:15.521Z,8.90
2019-05-22T20:46:46.475Z,9.70
2019-05-22T20:49:16.467Z,12.97
2019-05-22T20:51:46.201Z,11.83
2019-05-22T20:54:17.036Z,10.87
2019-05-22T20:56:49.352Z,10.87
2019-05-22T20:59:18.881Z,12.17
2019-05-22T21:01:49.185Z,11.43
2019-05-22T21:04:20.371Z,13.10
2019-05-22T21:06:54.449Z,13.17
2019-05-22T21:09:25.382Z,13.97
2019-05-22T21:11:55.285Z,11.10
2019-05-22T21:14:25.703Z,11.47
2019-05-22T21:16:55.979Z,14.10
2019-05-22T21:19:47.913Z,12.43
2019-05-22T21:22:26.924Z,15.13
2019-05-22T21:28:05.625Z,15.63
2019-05-22T21:30:47.335Z,14.63
2019-05-22T21:33:16.549Z,13.53
2019-05-22T21:36:09.910Z,13.27
2019-05-22T21:38:46.287Z,15.60
2019-05-22T21:41:33.559Z,12.03
2019-05-22T21:44:10.055Z,13.27
2019-05-22T21:46:41.647Z,14.53
2019-05-22T21:49:23.641Z,11.73
2019-05-22T21:51:57.871Z,15.67
2019-05-22T21:54:44.573Z,13.10
2019-05-22T21:57:13.563Z,17.37
2019-05-22T21:59:56.525Z,13.73
2019-05-22T22:02:39.538Z,14.63
2019-05-22T22:05:29.520Z,13.73
2019-05-22T22:08:02.475Z,13.80
2019-05-22T22:10:39.339Z,15.17
2019-05-22T22:13:14.437Z,17.20
2019-05-22T22:15:44.302Z,14.90
2019-05-22T22:18:24.268Z,16.77
2019-05-22T22:21:00.242Z,21.03
2019-05-22T22:23:29.491Z,15.30
2019-05-22T22:26:24.149Z,14.33
2019-05-22T22:28:44.032Z,16.37
2019-05-22T22:31:16.693Z,15.87
2019-05-22T22:34:01.942Z,16.23
2019-05-22T22:36:31.541Z,16.30
2019-05-22T22:39:05.687Z,12.97
2019-05-22T22:41:40.354Z,13.03
2019-05-22T22:44:19.117Z,15.03
2019-05-22T22:47:03.196Z,15.53
2019-05-22T22:49:38.811Z,12.60
2019-05-22T22:52:13.367Z,15.50
2019-05-22T22:54:50.213Z,13.17
2019-05-22T22:57:25.734Z,14.33
2019-05-22T22:59:58.124Z,18.70
2019-05-22T23:02:37.058Z,17.07
2019-05-22T23:05:17.325Z,21.57
2019-05-22T23:07:53.135Z,17.20
2019-05-22T23:10:28.694Z,15.90
2019-05-22T23:13:03.589Z,16.90
2019-05-22T23:15:37.448Z,16.90
2019-05-22T23:18:11.954Z,15.57
2019-05-22T23:20:44.085Z,17.67
2019-05-22T23:23:15.137Z,17.93
2019-05-22T23:25:49.717Z,15.60
2019-05-22T23:28:34.671Z,16.27
2019-05-22T23:31:18.376Z,16.30
2019-05-22T23:33:57.078Z,15.83
2019-05-22T23:36:34.491Z,21.03
2019-05-22T23:39:11.268Z,17.57
2019-05-22T23:41:46.529Z,18.47
2019-05-22T23:44:24.256Z,17.90
2019-05-22T23:46:55.778Z,15.00
2019-05-22T23:49:32.695Z,17.53
2019-05-22T23:52:12.125Z,17.43
2019-05-22T23:54:47.250Z,18.60
2019-05-22T23:57:24.356Z,16.73
